Time;durP1;ratioP1;P1;durP2;ratioP2;P2;SDS_P1;SDS_P2;PMS_P1;PMS_P2;Temp;Humidity;BMP_temperature;BMP_pressure;BME280_temperature;BME280_humidity;BME280_pressure;Samples;Min_cycle;Max_cycle;Signal;HPM_P1;HPM_P2
2021/09/20 00:01:08;;;;;;;1.77;1.43;;;11.30;99.90;;;;;;6267517;28;20196;-71
2021/09/20 00:04:10;;;;;;;1.47;1.37;;;11.20;99.90;;;;;;6267451;28;20281;-71
2021/09/20 00:07:13;;;;;;;2.03;1.83;;;11.20;99.90;;;;;;6268909;28;20661;-71
2021/09/20 00:10:15;;;;;;;1.70;1.60;;;11.20;99.90;;;;;;6268677;28;20220;-71
2021/09/20 00:13:18;;;;;;;1.60;1.50;;;11.30;99.90;;;;;;6267068;28;20204;-71
2021/09/20 00:16:20;;;;;;;1.60;1.50;;;11.30;99.90;;;;;;6250195;28;20272;-71
2021/09/20 00:19:23;;;;;;;1.53;1.43;;;11.20;99.90;;;;;;6264036;28;20188;-71
2021/09/20 00:22:26;;;;;;;1.93;1.50;;;11.20;99.90;;;;;;6262686;28;20215;-71
2021/09/20 00:25:28;;;;;;;1.80;1.50;;;11.10;99.90;;;;;;6268810;28;20228;-71
2021/09/20 00:28:30;;;;;;;1.27;1.17;;;11.10;99.90;;;;;;6268099;28;20196;-71
2021/09/20 00:31:32;;;;;;;3.40;1.80;;;11.10;99.90;;;;;;6266968;28;20227;-71
2021/09/20 00:34:35;;;;;;;3.60;1.60;;;11.10;99.90;;;;;;6267250;28;20196;-71
2021/09/20 00:37:37;;;;;;;1.40;1.30;;;11.10;99.90;;;;;;6250702;28;20277;-71
2021/09/20 00:40:40;;;;;;;1.60;1.50;;;11.10;99.90;;;;;;6268551;28;20559;-71
2021/09/20 00:43:42;;;;;;;1.80;1.47;;;11.20;99.90;;;;;;6268146;28;20204;-71
2021/09/20 00:46:44;;;;;;;2.20;1.37;;;11.20;99.90;;;;;;6268559;28;20202;-71
2021/09/20 00:49:47;;;;;;;2.20;1.90;;;11.20;99.90;;;;;;6271299;28;20214;-71
2021/09/20 00:52:49;;;;;;;2.00;1.70;;;11.20;99.90;;;;;;6262279;28;20203;-71
2021/09/20 00:55:51;;;;;;;3.80;2.13;;;11.20;99.90;;;;;;6274073;28;20246;-71
2021/09/20 00:58:55;;;;;;;2.27;2.07;;;11.10;99.90;;;;;;6274386;28;20197;-71
2021/09/20 01:01:58;;;;;;;2.73;2.13;;;11.20;99.90;;;;;;6272723;28;20203;-71
2021/09/20 01:05:00;;;;;;;1.97;1.73;;;11.10;99.90;;;;;;6274211;28;20190;-71
2021/09/20 01:08:03;;;;;;;1.87;1.77;;;11.10;99.90;;;;;;6274348;28;20214;-71
2021/09/20 01:11:05;;;;;;;2.30;1.90;;;11.10;99.90;;;;;;6275024;28;20466;-70
2021/09/20 01:14:08;;;;;;;2.20;1.73;;;11.20;99.90;;;;;;6275662;28;20275;-71
2021/09/20 01:17:10;;;;;;;2.90;2.27;;;11.20;99.90;;;;;;6263137;28;20213;-71
2021/09/20 01:20:12;;;;;;;3.47;2.03;;;11.20;99.90;;;;;;6270318;28;20225;-71
2021/09/20 01:23:19;;;;;;;1.67;1.57;;;11.30;99.90;;;;;;6254147;28;20262;-71
2021/09/20 01:26:21;;;;;;;2.73;1.93;;;11.30;99.90;;;;;;6271641;28;20228;-71
2021/09/20 01:29:24;;;;;;;4.57;1.90;;;11.30;99.90;;;;;;6270536;28;20244;-71
2021/09/20 01:32:27;;;;;;;2.70;2.20;;;11.20;99.90;;;;;;6271766;28;20215;-71
2021/09/20 01:35:30;;;;;;;2.33;2.13;;;11.20;99.90;;;;;;6271685;28;20608;-71
2021/09/20 01:38:32;;;;;;;3.27;2.50;;;11.20;99.90;;;;;;6271504;28;20209;-71
2021/09/20 01:41:35;;;;;;;4.30;2.30;;;11.10;99.90;;;;;;6271264;28;20589;-71
2021/09/20 01:44:37;;;;;;;3.60;2.23;;;11.10;99.90;;;;;;6271429;28;20202;-71
2021/09/20 01:47:40;;;;;;;3.13;2.23;;;11.00;99.90;;;;;;6253432;28;20196;-71
2021/09/20 01:50:42;;;;;;;2.50;2.30;;;11.00;99.90;;;;;;6265357;28;20570;-71
2021/09/20 01:53:45;;;;;;;2.10;1.90;;;11.00;99.90;;;;;;6247510;28;20540;-71
2021/09/20 01:56:47;;;;;;;4.63;2.17;;;11.00;99.90;;;;;;6271051;28;20185;-71
2021/09/20 01:59:50;;;;;;;2.90;2.00;;;10.90;99.90;;;;;;6269680;28;20188;-71
2021/09/20 02:02:53;;;;;;;2.40;2.13;;;11.00;99.90;;;;;;6269680;28;20195;-71
2021/09/20 02:05:55;;;;;;;3.50;2.40;;;11.00;99.90;;;;;;6253052;28;20252;-71
2021/09/20 02:08:58;;;;;;;2.73;2.17;;;11.00;99.90;;;;;;6270765;28;20191;-71
2021/09/20 02:12:00;;;;;;;4.07;2.17;;;11.00;99.90;;;;;;6269186;28;20207;-71
2021/09/20 02:15:05;;;;;;;2.13;1.97;;;10.90;99.90;;;;;;6267554;28;20189;-71
2021/09/20 02:18:07;;;;;;;3.43;1.87;;;10.90;99.90;;;;;;6270554;28;20615;-71
2021/09/20 02:21:11;;;;;;;1.97;1.80;;;10.90;99.90;;;;;;6232244;28;20202;-71
2021/09/20 02:24:13;;;;;;;3.40;1.93;;;10.90;99.90;;;;;;6270164;28;20282;-71
2021/09/20 02:27:15;;;;;;;2.40;2.20;;;10.80;99.90;;;;;;6269265;28;20196;-71
2021/09/20 02:30:18;;;;;;;2.47;2.27;;;10.70;99.90;;;;;;6252747;28;20666;-71
2021/09/20 02:33:20;;;;;;;2.60;2.33;;;10.60;99.90;;;;;;6269942;28;20212;-71
2021/09/20 02:36:23;;;;;;;2.77;2.33;;;10.60;99.90;;;;;;6268863;28;20220;-71
2021/09/20 02:39:25;;;;;;;4.90;2.87;;;10.60;99.90;;;;;;6268685;28;20727;-71
2021/09/20 02:42:27;;;;;;;2.30;2.10;;;10.60;99.90;;;;;;6252100;28;20205;-71
2021/09/20 02:45:30;;;;;;;2.83;2.40;;;10.60;99.90;;;;;;6268558;28;20660;-71
2021/09/20 02:48:33;;;;;;;2.30;2.10;;;10.60;99.90;;;;;;6268889;28;20195;-71
2021/09/20 02:51:35;;;;;;;3.73;2.20;;;10.60;99.90;;;;;;6253609;28;20199;-71
2021/09/20 02:54:37;;;;;;;3.47;2.40;;;10.70;99.90;;;;;;6280650;28;20742;-71
2021/09/20 02:57:40;;;;;;;3.57;1.80;;;10.70;99.90;;;;;;6268471;28;20625;-71
2021/09/20 03:00:42;;;;;;;3.43;2.33;;;10.70;99.90;;;;;;6268341;28;20268;-71
2021/09/20 03:03:45;;;;;;;2.30;2.10;;;10.70;99.90;;;;;;6268491;28;20711;-71
2021/09/20 03:06:47;;;;;;;5.90;2.60;;;10.60;99.90;;;;;;6269425;28;20196;-71
2021/09/20 03:09:49;;;;;;;4.17;2.10;;;10.60;99.90;;;;;;6269359;28;20206;-71
2021/09/20 03:12:52;;;;;;;3.73;2.80;;;10.60;99.90;;;;;;6267609;28;20222;-71
2021/09/20 03:15:54;;;;;;;3.37;2.03;;;10.60;99.90;;;;;;6254330;28;20663;-71
2021/09/20 03:18:56;;;;;;;3.57;2.57;;;10.60;99.90;;;;;;6267200;28;20218;-71
2021/09/20 03:21:58;;;;;;;2.93;2.40;;;10.60;99.90;;;;;;6268806;28;20191;-71
2021/09/20 03:25:01;;;;;;;2.83;2.40;;;10.60;99.90;;;;;;6251054;28;20603;-70
2021/09/20 03:28:03;;;;;;;2.50;2.10;;;10.60;99.90;;;;;;6269165;28;20693;-71
2021/09/20 03:31:05;;;;;;;2.73;2.53;;;10.70;99.90;;;;;;6268061;28;20294;-71
2021/09/20 03:34:08;;;;;;;4.40;2.70;;;10.70;99.90;;;;;;6268900;28;20209;-71
2021/09/20 03:37:10;;;;;;;3.00;2.40;;;10.70;99.90;;;;;;6269064;28;20184;-71
2021/09/20 03:40:15;;;;;;;2.87;2.10;;;10.70;99.90;;;;;;6269035;28;20184;-71
2021/09/20 03:43:17;;;;;;;3.40;2.40;;;10.70;99.90;;;;;;6251159;28;20226;-71
2021/09/20 03:46:20;;;;;;;3.50;2.50;;;10.70;99.90;;;;;;6267650;28;20191;-71
2021/09/20 03:49:22;;;;;;;4.27;3.23;;;10.80;99.90;;;;;;6268859;28;20195;-71
2021/09/20 03:52:24;;;;;;;3.63;3.20;;;10.70;99.90;;;;;;6246340;28;20208;-71
2021/09/20 03:55:27;;;;;;;4.40;2.83;;;10.70;99.90;;;;;;6254193;28;20290;-71
2021/09/20 03:58:29;;;;;;;3.10;2.77;;;10.70;99.90;;;;;;6254339;28;20385;-71
2021/09/20 04:01:31;;;;;;;3.70;2.70;;;10.70;99.90;;;;;;6268660;28;20233;-71
2021/09/20 04:04:34;;;;;;;3.10;2.77;;;10.70;99.90;;;;;;6268899;28;20192;-71
2021/09/20 04:07:42;;;;;;;3.77;3.17;;;10.70;99.90;;;;;;6268627;28;20206;-71
2021/09/20 04:10:44;;;;;;;3.13;2.80;;;10.70;99.90;;;;;;6267656;28;20200;-71
2021/09/20 04:13:46;;;;;;;3.47;2.73;;;10.70;99.90;;;;;;6267643;28;20221;-71
2021/09/20 04:16:49;;;;;;;4.03;3.03;;;10.70;99.90;;;;;;6261029;28;20196;-71
2021/09/20 04:19:51;;;;;;;4.00;3.37;;;10.70;99.90;;;;;;6266827;28;20377;-71
2021/09/20 04:22:53;;;;;;;3.73;2.80;;;10.80;99.90;;;;;;6252039;28;20241;-71
2021/09/20 04:25:55;;;;;;;3.00;2.50;;;10.80;99.90;;;;;;6270946;28;20238;-71
2021/09/20 04:28:58;;;;;;;2.57;2.30;;;10.80;99.90;;;;;;6273098;28;20213;-71
2021/09/20 04:32:00;;;;;;;3.87;2.50;;;10.90;99.90;;;;;;6271692;28;20189;-71
2021/09/20 04:35:02;;;;;;;2.77;2.57;;;10.90;99.90;;;;;;6271671;28;20192;-71
2021/09/20 04:38:06;;;;;;;3.00;2.70;;;10.90;99.90;;;;;;6273123;28;20215;-71
2021/09/20 04:41:08;;;;;;;3.97;2.53;;;10.90;99.90;;;;;;6271692;28;20187;-71
2021/09/20 04:44:11;;;;;;;4.07;3.03;;;10.90;99.90;;;;;;6271456;28;20233;-71
2021/09/20 04:47:13;;;;;;;2.63;2.43;;;10.90;99.90;;;;;;6272533;28;20655;-71
2021/09/20 04:50:15;;;;;;;3.73;2.50;;;10.90;99.90;;;;;;6267574;28;20655;-71
2021/09/20 04:53:17;;;;;;;4.70;2.60;;;10.90;99.90;;;;;;6244377;28;20634;-71
2021/09/20 04:56:19;;;;;;;3.73;2.80;;;10.90;99.90;;;;;;6271434;28;20180;-71
2021/09/20 04:59:22;;;;;;;2.93;2.67;;;10.90;99.90;;;;;;6205862;28;20197;-71
2021/09/20 05:02:24;;;;;;;4.53;3.03;;;10.90;99.90;;;;;;6256102;28;20313;-71
2021/09/20 05:05:27;;;;;;;4.17;3.27;;;10.80;99.90;;;;;;6246037;28;20240;-71
2021/09/20 05:08:29;;;;;;;5.10;3.20;;;10.90;99.90;;;;;;6262653;28;20286;-71
2021/09/20 05:11:32;;;;;;;4.50;3.43;;;10.80;99.90;;;;;;6271836;28;20671;-71
2021/09/20 05:14:34;;;;;;;3.53;3.23;;;10.80;99.90;;;;;;6266390;28;20212;-71
2021/09/20 05:17:38;;;;;;;4.03;3.13;;;10.80;99.90;;;;;;6251995;28;20192;-71
2021/09/20 05:20:43;;;;;;;3.90;3.17;;;10.90;99.90;;;;;;6263348;28;20207;-71
2021/09/20 05:23:46;;;;;;;4.57;2.90;;;10.90;99.90;;;;;;6271402;28;20207;-71
2021/09/20 05:26:49;;;;;;;5.50;3.40;;;10.90;99.90;;;;;;6270350;28;20188;-71
2021/09/20 05:29:51;;;;;;;4.30;3.20;;;10.90;99.90;;;;;;6270006;28;20196;-71
2021/09/20 05:32:54;;;;;;;4.33;3.00;;;10.90;99.90;;;;;;6271328;28;20204;-71
2021/09/20 05:35:56;;;;;;;4.30;3.17;;;11.00;99.90;;;;;;6270792;28;20191;-71
2021/09/20 05:38:58;;;;;;;3.33;3.03;;;11.00;99.90;;;;;;6271049;28;20199;-71
2021/09/20 05:42:01;;;;;;;3.90;3.20;;;11.00;99.90;;;;;;6271093;28;20701;-71
2021/09/20 05:45:04;;;;;;;8.77;3.33;;;11.00;99.90;;;;;;6269785;28;20184;-71
2021/09/20 05:48:06;;;;;;;3.90;3.30;;;11.00;99.90;;;;;;6269741;28;20200;-71
2021/09/20 05:51:10;;;;;;;3.50;3.20;;;11.00;99.90;;;;;;6258443;28;20223;-71
2021/09/20 05:54:12;;;;;;;3.57;3.10;;;11.00;99.90;;;;;;6268365;28;20729;-71
2021/09/20 05:57:15;;;;;;;5.87;3.10;;;11.10;99.90;;;;;;6269459;28;20195;-71
2021/09/20 06:00:18;;;;;;;3.67;2.83;;;11.20;99.90;;;;;;6269214;28;20664;-71
2021/09/20 06:03:21;;;;;;;4.67;3.43;;;11.30;99.90;;;;;;6269268;28;20195;-71
2021/09/20 06:06:24;;;;;;;3.20;2.90;;;11.30;99.90;;;;;;6269294;28;20206;-71
2021/09/20 06:09:26;;;;;;;5.50;2.90;;;11.30;99.90;;;;;;6270428;28;20226;-71
2021/09/20 06:12:29;;;;;;;3.53;3.10;;;11.40;99.90;;;;;;6269131;28;20369;-71
2021/09/20 06:15:31;;;;;;;3.33;2.53;;;11.40;99.90;;;;;;6257275;28;20199;-71
2021/09/20 06:18:35;;;;;;;3.60;2.90;;;11.50;99.90;;;;;;6269959;28;20187;-71
2021/09/20 06:21:37;;;;;;;4.87;2.93;;;11.60;99.90;;;;;;6252575;28;20304;-71
2021/09/20 06:24:39;;;;;;;3.00;2.67;;;11.60;99.90;;;;;;6263480;28;20235;-71
2021/09/20 06:27:42;;;;;;;3.43;2.90;;;11.70;99.90;;;;;;6269447;28;20275;-71
2021/09/20 06:30:44;;;;;;;4.23;3.07;;;11.70;99.90;;;;;;6270191;28;20230;-71
2021/09/20 06:33:46;;;;;;;3.67;3.30;;;11.70;99.90;;;;;;6270664;28;20215;-71
2021/09/20 06:36:49;;;;;;;5.03;3.23;;;11.70;99.90;;;;;;6269935;28;20200;-71
2021/09/20 06:39:51;;;;;;;4.67;3.00;;;11.70;99.90;;;;;;6270142;28;20248;-73
2021/09/20 06:42:53;;;;;;;4.07;2.80;;;11.70;99.90;;;;;;6269822;28;20188;-71
2021/09/20 06:45:56;;;;;;;3.63;2.73;;;11.70;99.90;;;;;;6267991;28;20208;-71
2021/09/20 06:48:58;;;;;;;3.53;2.90;;;11.70;99.90;;;;;;6269217;28;20195;-71
2021/09/20 06:52:01;;;;;;;4.37;2.90;;;11.70;99.90;;;;;;6254742;28;20616;-71
2021/09/20 06:55:06;;;;;;;3.33;3.03;;;11.70;99.90;;;;;;6255442;28;20227;-72
2021/09/20 06:58:08;;;;;;;3.53;3.00;;;11.70;99.90;;;;;;6269422;28;20607;-71
2021/09/20 07:01:10;;;;;;;6.10;3.27;;;11.70;99.90;;;;;;6269385;28;20392;-71
2021/09/20 07:04:13;;;;;;;3.40;2.97;;;11.80;99.90;;;;;;6269393;28;20682;-71
2021/09/20 07:07:17;;;;;;;3.87;2.93;;;11.70;99.90;;;;;;6269269;28;20279;-71
2021/09/20 07:10:19;;;;;;;4.70;3.07;;;11.80;99.90;;;;;;6269124;28;20202;-72
2021/09/20 07:13:21;;;;;;;4.63;2.80;;;11.80;99.90;;;;;;6267547;28;20220;-71
2021/09/20 07:16:24;;;;;;;3.03;2.73;;;11.80;99.90;;;;;;6267133;28;20202;-71
2021/09/20 07:19:26;;;;;;;3.90;2.67;;;11.80;99.90;;;;;;6267654;28;20191;-71
2021/09/20 07:22:28;;;;;;;3.47;2.83;;;11.80;99.90;;;;;;6256063;28;20203;-71
2021/09/20 07:25:31;;;;;;;3.27;2.63;;;11.90;99.90;;;;;;6268874;28;20216;-71
2021/09/20 07:28:33;;;;;;;2.87;2.47;;;12.00;99.90;;;;;;6268655;28;20558;-71
2021/09/20 07:31:35;;;;;;;4.50;3.07;;;12.10;99.90;;;;;;6251173;28;20193;-71
2021/09/20 07:34:38;;;;;;;4.30;2.80;;;12.20;99.90;;;;;;6267561;28;20212;-71
2021/09/20 07:37:40;;;;;;;3.57;2.70;;;12.40;99.90;;;;;;6267272;28;20205;-70
2021/09/20 07:40:42;;;;;;;3.10;2.80;;;12.50;99.90;;;;;;6268807;28;20186;-71
2021/09/20 07:43:45;;;;;;;2.97;2.67;;;12.50;99.90;;;;;;6267423;28;20201;-71
2021/09/20 07:46:47;;;;;;;4.47;3.20;;;12.60;99.90;;;;;;6268724;28;20564;-71
2021/09/20 07:49:50;;;;;;;2.70;2.50;;;12.60;99.90;;;;;;6267057;28;20338;-71
2021/09/20 07:52:52;;;;;;;5.90;3.27;;;12.70;99.90;;;;;;6248712;28;20267;-71
2021/09/20 07:55:54;;;;;;;3.60;2.77;;;12.80;99.90;;;;;;6267202;28;20680;-71
2021/09/20 07:58:58;;;;;;;3.63;3.00;;;12.90;99.90;;;;;;6269873;28;20197;-71
2021/09/20 08:02:00;;;;;;;4.37;2.57;;;13.10;99.90;;;;;;6273594;28;20770;-71
2021/09/20 08:05:03;;;;;;;3.90;3.03;;;13.20;99.90;;;;;;6273432;28;20785;-71
2021/09/20 08:08:05;;;;;;;3.63;2.77;;;13.30;99.90;;;;;;6272446;28;20812;-71
2021/09/20 08:11:08;;;;;;;3.10;2.70;;;13.30;99.90;;;;;;6271891;28;20200;-71
2021/09/20 08:14:10;;;;;;;3.53;2.90;;;13.40;99.90;;;;;;6272420;28;20300;-71
2021/09/20 08:17:12;;;;;;;3.60;3.27;;;13.60;99.90;;;;;;6255090;28;20202;-71
2021/09/20 08:20:15;;;;;;;6.27;2.97;;;13.70;99.90;;;;;;6271120;28;20195;-71
2021/09/20 08:23:20;;;;;;;4.97;3.70;;;13.70;99.90;;;;;;6272382;28;20211;-71
2021/09/20 08:26:22;;;;;;;3.03;2.53;;;13.80;99.90;;;;;;6248179;28;20596;-72
2021/09/20 08:29:25;;;;;;;5.43;3.43;;;14.00;99.90;;;;;;6270613;28;20218;-71
2021/09/20 08:32:28;;;;;;;4.27;3.33;;;14.10;99.90;;;;;;6272021;28;20686;-71
2021/09/20 08:35:31;;;;;;;4.20;2.97;;;14.10;99.90;;;;;;6272609;28;20268;-71
2021/09/20 08:38:34;;;;;;;4.20;3.30;;;14.10;99.90;;;;;;6254826;28;20203;-71
2021/09/20 08:41:41;;;;;;;4.77;2.73;;;14.20;99.90;;;;;;6272397;28;20183;-71
2021/09/20 08:44:44;;;;;;;4.23;3.10;;;14.20;99.90;;;;;;6265221;28;20766;-71
2021/09/20 08:47:48;;;;;;;5.07;3.10;;;14.20;99.90;;;;;;6250978;28;20233;-71
2021/09/20 08:50:51;;;;;;;5.67;3.20;;;14.40;99.90;;;;;;6262613;28;20717;-71
2021/09/20 08:53:55;;;;;;;3.93;2.90;;;14.50;99.90;;;;;;6247763;28;20206;-71
2021/09/20 08:56:57;;;;;;;3.77;2.50;;;14.70;99.90;;;;;;6269284;28;20332;-71
2021/09/20 09:00:00;;;;;;;4.90;3.07;;;15.00;99.90;;;;;;6270956;28;20187;-71
2021/09/20 09:03:04;;;;;;;3.77;2.93;;;15.30;99.20;;;;;;6272103;28;20191;-72
2021/09/20 09:06:08;;;;;;;4.07;2.90;;;15.60;97.90;;;;;;6270626;28;20199;-71
2021/09/20 09:09:34;;;;;;;3.10;2.80;;;15.60;98.10;;;;;;6271468;28;20184;-71
2021/09/20 09:12:37;;;;;;;5.73;2.87;;;15.60;97.40;;;;;;6271768;28;20184;-71
2021/09/20 09:15:46;;;;;;;4.00;2.93;;;15.60;97.90;;;;;;6264791;28;20208;-71
2021/09/20 09:19:06;;;;;;;4.43;2.93;;;15.80;98.80;;;;;;6271809;28;20677;-72
2021/09/20 09:22:09;;;;;;;4.40;2.77;;;16.10;96.30;;;;;;6254218;28;20195;-71
2021/09/20 09:25:19;;;;;;;4.93;2.50;;;16.10;97.40;;;;;;6271562;28;20289;-71
2021/09/20 09:28:29;;;;;;;5.03;2.70;;;16.00;96.30;;;;;;6270309;28;20179;-71
2021/09/20 09:31:37;;;;;;;2.63;2.37;;;16.00;95.30;;;;;;6271501;28;20199;-71
2021/09/20 09:34:42;;;;;;;5.07;2.90;;;16.00;95.40;;;;;;6270333;28;20224;-71
2021/09/20 09:37:46;;;;;;;3.47;2.57;;;16.30;95.40;;;;;;6271436;28;20191;-71
2021/09/20 09:41:01;;;;;;;3.57;2.30;;;16.00;94.20;;;;;;6253344;28;20188;-71
2021/09/20 09:44:06;;;;;;;3.67;2.77;;;16.00;94.80;;;;;;6271360;28;20570;-71
2021/09/20 09:47:24;;;;;;;3.73;2.90;;;16.20;95.00;;;;;;6271098;28;20203;-71
2021/09/20 09:50:27;;;;;;;3.97;2.80;;;16.30;95.00;;;;;;6264440;28;20200;-71
2021/09/20 09:53:38;;;;;;;4.63;3.13;;;16.20;93.60;;;;;;6251886;28;20207;-71
2021/09/20 09:56:40;;;;;;;3.30;2.90;;;16.00;93.80;;;;;;6269369;28;20184;-71
2021/09/20 09:59:52;;;;;;;4.40;2.63;;;15.70;93.80;;;;;;6269758;28;20187;-71
2021/09/20 10:02:54;;;;;;;2.73;2.53;;;15.70;93.70;;;;;;6270984;28;20176;-71
2021/09/20 10:05:59;;;;;;;2.43;2.23;;;15.60;93.90;;;;;;6269275;28;20213;-71
2021/09/20 10:09:01;;;;;;;4.20;3.00;;;15.50;94.10;;;;;;6252881;28;20559;-71
2021/09/20 10:12:03;;;;;;;2.87;2.57;;;15.50;94.10;;;;;;6270537;28;20674;-71
2021/09/20 10:15:10;;;;;;;3.40;2.43;;;15.30;95.10;;;;;;6260715;28;20227;-71
2021/09/20 10:18:12;;;;;;;2.53;2.33;;;15.20;95.10;;;;;;6249991;28;20189;-71
2021/09/20 10:21:14;;;;;;;3.40;2.70;;;15.20;95.10;;;;;;6240890;28;20264;-71
2021/09/20 10:24:17;;;;;;;4.33;2.53;;;15.40;94.60;;;;;;6268536;28;20230;-71
2021/09/20 10:27:26;;;;;;;3.93;2.73;;;15.50;95.10;;;;;;6270047;28;20271;-71
2021/09/20 10:30:32;;;;;;;3.07;2.63;;;15.80;95.20;;;;;;6269029;28;20612;-71
2021/09/20 10:33:34;;;;;;;5.13;3.27;;;16.10;94.20;;;;;;6269869;28;20203;-71
2021/09/20 10:37:08;;;;;;;4.20;2.80;;;15.90;93.50;;;;;;6268603;28;20286;-71
2021/09/20 10:40:10;;;;;;;3.73;2.97;;;15.80;94.50;;;;;;6267993;28;20215;-71
2021/09/20 10:43:25;;;;;;;3.57;2.80;;;15.80;94.20;;;;;;6251950;28;20206;-71
2021/09/20 10:46:32;;;;;;;3.93;3.00;;;15.70;94.30;;;;;;6268269;28;20195;-71
2021/09/20 10:49:49;;;;;;;3.33;2.97;;;15.60;94.10;;;;;;6268319;28;20194;-71
2021/09/20 10:53:33;;;;;;;2.87;2.57;;;15.60;94.20;;;;;;6227141;28;20197;-71
2021/09/20 10:56:41;;;;;;;4.23;3.10;;;15.50;93.60;;;;;;6224872;28;20211;-71
2021/09/20 10:59:45;;;;;;;3.20;2.90;;;15.60;94.20;;;;;;6241675;28;20204;-71
2021/09/20 11:02:49;;;;;;;4.63;3.10;;;15.70;94.30;;;;;;6241617;28;20199;-71
2021/09/20 11:06:28;;;;;;;3.43;2.90;;;16.10;94.40;;;;;;6241519;28;20549;-70
2021/09/20 11:09:38;;;;;;;3.50;2.90;;;16.40;92.80;;;;;;6224687;28;20193;-71
2021/09/20 11:13:00;;;;;;;4.77;2.77;;;16.60;92.00;;;;;;6225252;28;20204;-71
2021/09/20 11:16:03;;;;;;;3.60;3.30;;;17.20;92.00;;;;;;6241050;28;20789;-71
2021/09/20 11:19:28;;;;;;;3.73;3.30;;;17.70;90.00;;;;;;6241129;28;20585;-71
2021/09/20 11:22:34;;;;;;;3.80;3.10;;;18.20;85.80;;;;;;6224555;28;20291;-71
2021/09/20 11:25:37;;;;;;;2.77;2.57;;;18.30;86.70;;;;;;6224214;28;20228;-71
2021/09/20 11:28:48;;;;;;;4.73;3.23;;;18.60;83.50;;;;;;6225037;28;20222;-70
2021/09/20 11:31:54;;;;;;;3.27;2.57;;;18.80;81.90;;;;;;6243005;28;20195;-71
2021/09/20 11:34:59;;;;;;;4.10;3.40;;;18.80;80.00;;;;;;6262233;28;20217;-71
2021/09/20 11:38:06;;;;;;;3.10;2.67;;;18.70;80.40;;;;;;6267423;28;20697;-71
2021/09/20 11:41:20;;;;;;;3.40;2.97;;;18.70;81.70;;;;;;6267327;28;20200;-71
2021/09/20 11:44:29;;;;;;;3.37;2.87;;;18.70;80.60;;;;;;6267324;28;20229;-71
2021/09/20 11:47:37;;;;;;;3.13;2.70;;;18.80;82.20;;;;;;6268423;28;20248;-71
2021/09/20 11:50:42;;;;;;;3.93;2.80;;;18.80;82.70;;;;;;6265422;28;20188;-71
2021/09/20 11:53:44;;;;;;;3.40;3.10;;;18.90;80.70;;;;;;6247537;28;20610;-71
2021/09/20 11:56:46;;;;;;;4.23;3.13;;;18.50;78.40;;;;;;6267058;28;20200;-71
2021/09/20 11:59:50;;;;;;;3.17;2.73;;;18.10;82.30;;;;;;6267448;28;20222;-71
2021/09/20 12:02:56;;;;;;;2.90;2.50;;;17.80;81.10;;;;;;6268344;28;20200;-71
2021/09/20 12:06:00;;;;;;;2.70;2.50;;;17.70;81.10;;;;;;6268430;28;20697;-71
2021/09/20 12:09:03;;;;;;;4.20;2.73;;;17.50;84.30;;;;;;6267101;28;20195;-71
2021/09/20 12:12:08;;;;;;;2.43;2.23;;;17.30;80.00;;;;;;6268405;28;20199;-71
2021/09/20 12:15:14;;;;;;;3.57;2.73;;;17.30;82.30;;;;;;6259346;28;20212;-70
2021/09/20 12:18:19;;;;;;;4.13;2.57;;;17.40;83.20;;;;;;6265522;28;20569;-70
2021/09/20 12:21:22;;;;;;;3.57;2.80;;;17.30;81.80;;;;;;6258557;28;20187;-71
2021/09/20 12:24:24;;;;;;;4.43;2.87;;;17.30;81.30;;;;;;6266930;28;20229;-71
2021/09/20 12:27:26;;;;;;;3.40;2.40;;;17.20;83.00;;;;;;6266981;28;20690;-71
2021/09/20 12:30:30;;;;;;;6.07;2.80;;;17.40;84.80;;;;;;6250655;28;20214;-71
2021/09/20 12:33:49;;;;;;;4.60;2.57;;;17.60;84.60;;;;;;6267693;28;20191;-71
2021/09/20 12:36:56;;;;;;;6.13;2.70;;;17.70;84.50;;;;;;6267327;28;20203;-71
2021/09/20 12:40:23;;;;;;;3.03;2.67;;;17.70;86.00;;;;;;6267955;28;20566;-71
2021/09/20 12:43:29;;;;;;;2.90;2.60;;;17.90;85.30;;;;;;6268517;28;20195;-71
2021/09/20 12:46:32;;;;;;;2.73;2.53;;;18.00;83.50;;;;;;6271083;28;20195;-71
2021/09/20 12:49:36;;;;;;;3.20;2.70;;;18.10;81.70;;;;;;6271264;28;20192;-71
2021/09/20 12:52:43;;;;;;;2.80;2.60;;;18.00;81.40;;;;;;6254279;28;20270;-70
2021/09/20 12:55:47;;;;;;;2.80;2.60;;;18.00;82.00;;;;;;6272277;28;20556;-71
2021/09/20 12:58:50;;;;;;;3.43;2.43;;;17.90;81.60;;;;;;6272327;28;20670;-71
2021/09/20 13:01:55;;;;;;;3.57;3.27;;;18.00;82.00;;;;;;6272273;28;20651;-70
2021/09/20 13:04:59;;;;;;;4.43;2.73;;;18.10;81.90;;;;;;6271073;28;20234;-71
2021/09/20 13:08:05;;;;;;;3.37;2.67;;;18.00;78.60;;;;;;6271041;28;20577;-71
2021/09/20 13:11:18;;;;;;;3.07;2.30;;;17.60;80.70;;;;;;6271957;28;20272;-71
2021/09/20 13:14:25;;;;;;;3.57;2.20;;;17.70;83.00;;;;;;6268459;28;20569;-71
2021/09/20 13:17:39;;;;;;;2.80;2.27;;;17.80;82.20;;;;;;6259164;28;20226;-71
2021/09/20 13:20:42;;;;;;;2.67;2.47;;;17.90;81.90;;;;;;6261961;28;20197;-71
2021/09/20 13:23:46;;;;;;;3.33;2.20;;;18.00;80.00;;;;;;6253775;28;20218;-71
2021/09/20 13:26:48;;;;;;;5.30;2.67;;;18.00;80.10;;;;;;6254945;28;20195;-71
2021/09/20 13:29:51;;;;;;;2.20;2.00;;;18.20;80.70;;;;;;6271620;28;20184;-71
2021/09/20 13:32:54;;;;;;;4.77;2.50;;;18.30;79.80;;;;;;6271587;28;20187;-71
2021/09/20 13:36:00;;;;;;;3.70;2.23;;;18.10;77.30;;;;;;6271300;28;20215;-71
2021/09/20 13:39:03;;;;;;;3.07;2.33;;;18.00;79.40;;;;;;6269881;28;20195;-71
2021/09/20 13:42:05;;;;;;;2.77;2.47;;;17.90;78.50;;;;;;6270486;28;20301;-71
2021/09/20 13:45:12;;;;;;;3.90;2.20;;;17.70;78.30;;;;;;6271010;28;20199;-71
2021/09/20 13:48:15;;;;;;;2.50;2.30;;;17.50;78.00;;;;;;6271098;28;20273;-71
2021/09/20 13:51:18;;;;;;;2.60;2.33;;;17.30;80.70;;;;;;6260230;28;20188;-71
2021/09/20 13:54:21;;;;;;;3.50;2.33;;;17.20;80.40;;;;;;6248594;28;20603;-71
2021/09/20 13:57:23;;;;;;;2.67;2.17;;;17.20;81.10;;;;;;6254408;28;20207;-71
2021/09/20 14:00:25;;;;;;;3.40;2.17;;;17.20;80.90;;;;;;6264189;23;20246;-76
2021/09/20 14:03:28;;;;;;;2.00;1.83;;;17.10;81.10;;;;;;6250018;28;20522;-76
2021/09/20 14:06:31;;;;;;;2.20;2.00;;;17.10;82.30;;;;;;6272388;28;20638;-76
2021/09/20 14:09:34;;;;;;;2.80;2.50;;;17.10;83.10;;;;;;6254354;28;20196;-76
2021/09/20 14:12:36;;;;;;;3.60;2.30;;;17.10;82.50;;;;;;6254399;28;20330;-76
2021/09/20 14:15:40;;;;;;;2.43;2.23;;;17.10;82.90;;;;;;6248619;28;20409;-76
2021/09/20 14:18:43;;;;;;;2.37;2.17;;;17.00;81.60;;;;;;6253752;28;20661;-76
2021/09/20 14:21:45;;;;;;;2.40;1.90;;;16.90;82.00;;;;;;6253932;28;20191;-76
2021/09/20 14:24:48;;;;;;;2.00;1.80;;;16.70;82.00;;;;;;6271871;28;20253;-76
2021/09/20 14:27:50;;;;;;;2.43;2.10;;;16.60;83.20;;;;;;6253651;28;20202;-76
2021/09/20 14:30:52;;;;;;;2.20;1.90;;;16.40;84.10;;;;;;6236676;28;20200;-76
2021/09/20 14:33:54;;;;;;;2.03;1.83;;;16.40;86.70;;;;;;6270251;28;20688;-76
2021/09/20 14:36:57;;;;;;;1.60;1.50;;;16.30;86.70;;;;;;6253262;28;20222;-76
2021/09/20 14:39:59;;;;;;;2.80;1.90;;;16.30;87.80;;;;;;6271431;28;20196;-75
2021/09/20 14:43:02;;;;;;;4.50;2.23;;;16.30;87.70;;;;;;6271312;28;20644;-76
2021/09/20 14:46:07;;;;;;;2.10;1.90;;;16.30;88.30;;;;;;6270902;28;20265;-75
2021/09/20 14:49:10;;;;;;;1.67;1.57;;;16.30;88.80;;;;;;6253529;28;20188;-76
2021/09/20 14:52:12;;;;;;;2.20;2.00;;;16.20;87.50;;;;;;6242381;28;20203;-76
2021/09/20 14:55:15;;;;;;;1.90;1.70;;;16.20;87.70;;;;;;6267439;28;20214;-76
2021/09/20 14:58:17;;;;;;;2.23;2.00;;;16.10;89.30;;;;;;6269788;28;20230;-76
2021/09/20 15:01:19;;;;;;;2.10;1.83;;;16.10;89.60;;;;;;6246416;28;20760;-76
2021/09/20 15:04:22;;;;;;;2.37;2.10;;;16.10;89.60;;;;;;6246115;28;20253;-76
2021/09/20 15:07:25;;;;;;;2.20;2.00;;;16.00;89.90;;;;;;6245402;28;20192;-76
2021/09/20 15:10:28;;;;;;;3.00;1.93;;;15.90;90.30;;;;;;6245907;28;20401;-76
2021/09/20 15:13:30;;;;;;;1.73;1.63;;;15.80;90.10;;;;;;6244574;28;20298;-76
2021/09/20 15:16:32;;;;;;;2.17;1.90;;;15.80;90.00;;;;;;6245828;28;20203;-76
2021/09/20 15:19:35;;;;;;;2.83;2.40;;;15.70;90.00;;;;;;6211958;28;20203;-76
2021/09/20 15:22:37;;;;;;;2.27;2.07;;;15.70;88.70;;;;;;6245595;28;20569;-75
2021/09/20 15:25:43;;;;;;;2.43;2.03;;;15.70;89.30;;;;;;6244625;28;20192;-76
2021/09/20 15:28:47;;;;;;;6.83;1.90;;;15.60;89.80;;;;;;6244165;28;20223;-76
2021/09/20 15:31:49;;;;;;;3.20;2.03;;;15.60;90.10;;;;;;6241238;28;20291;-76
2021/09/20 15:34:51;;;;;;;2.10;1.90;;;15.60;90.40;;;;;;6228018;28;20666;-76
2021/09/20 15:37:53;;;;;;;2.10;1.70;;;15.50;90.60;;;;;;6244376;28;20190;-76
2021/09/20 15:40:56;;;;;;;2.20;1.90;;;15.50;91.10;;;;;;6245221;28;20195;-75
2021/09/20 15:44:00;;;;;;;2.27;2.00;;;15.40;92.00;;;;;;6244267;28;20188;-76
2021/09/20 15:47:02;;;;;;;1.70;1.60;;;15.40;92.70;;;;;;6244000;28;20623;-76
2021/09/20 15:50:05;;;;;;;1.93;1.80;;;15.30;92.90;;;;;;6243988;28;20573;-76
2021/09/20 15:53:08;;;;;;;1.90;1.70;;;15.30;93.40;;;;;;6229657;28;20206;-76
2021/09/20 15:56:10;;;;;;;1.93;1.60;;;15.20;93.50;;;;;;6245145;28;20208;-76
2021/09/20 15:59:13;;;;;;;2.17;1.90;;;15.10;94.10;;;;;;6244875;28;20190;-76